Time;durP1;ratioP1;P1;durP2;ratioP2;P2;SDS_P1;SDS_P2;PMS_P1;PMS_P2;Temp;Humidity;BMP_temperature;BMP_pressure;BME280_temperature;BME280_humidity;BME280_pressure;Samples;Min_cycle;Max_cycle;Signal;HPM_P1;HPM_P2
2022/11/06 00:01:30;;;;;;;7.13;2.47;;;8.30;99.90;;;;;;5000114;28;20076;-68
2022/11/06 00:03:57;;;;;;;7.68;2.42;;;8.30;99.90;;;;;;5006177;28;20060;-68
2022/11/06 00:09:12;;;;;;;2.95;1.77;;;8.40;99.90;;;;;;5005635;28;20054;-67
2022/11/06 00:11:40;;;;;;;5.05;1.60;;;8.50;99.90;;;;;;5002693;28;20515;-68
2022/11/06 00:14:07;;;;;;;5.18;2.10;;;8.50;99.90;;;;;;5006075;28;20548;-69
2022/11/06 00:16:37;;;;;;;7.47;2.55;;;8.50;99.90;;;;;;5005061;28;20057;-70
2022/11/06 00:19:05;;;;;;;3.27;1.63;;;8.40;99.90;;;;;;5006501;28;20053;-68
2022/11/06 00:21:32;;;;;;;4.93;2.53;;;8.50;99.90;;;;;;5003180;28;20049;-66
2022/11/06 00:24:02;;;;;;;5.18;1.70;;;8.50;99.90;;;;;;5006278;28;20136;-68
2022/11/06 00:26:30;;;;;;;7.70;2.17;;;8.50;99.90;;;;;;5004606;28;20045;-67
2022/11/06 00:28:57;;;;;;;4.28;1.50;;;8.50;99.90;;;;;;5006150;28;20053;-69
2022/11/06 00:31:27;;;;;;;11.20;2.78;;;8.50;99.90;;;;;;5004851;28;20068;-70
2022/11/06 00:33:56;;;;;;;5.03;2.63;;;8.50;99.90;;;;;;4986007;28;20123;-68
2022/11/06 00:36:24;;;;;;;3.25;1.70;;;8.40;99.90;;;;;;4987294;28;20475;-70
2022/11/06 00:38:55;;;;;;;3.53;2.53;;;8.40;99.90;;;;;;4988046;28;20111;-67
2022/11/06 00:41:23;;;;;;;4.18;2.15;;;8.30;99.90;;;;;;4988314;28;20076;-70
2022/11/06 00:43:53;;;;;;;3.63;1.70;;;8.30;99.90;;;;;;4986172;28;20054;-67
2022/11/06 00:46:20;;;;;;;8.93;2.60;;;8.20;99.90;;;;;;4994979;28;20736;-67
2022/11/06 00:48:47;;;;;;;8.15;1.90;;;8.10;99.90;;;;;;4994944;28;20046;-70
2022/11/06 00:51:16;;;;;;;8.45;1.95;;;8.00;99.90;;;;;;4991863;28;20066;-67
2022/11/06 00:53:43;;;;;;;7.25;1.95;;;7.90;99.90;;;;;;4989963;28;20065;-68
2022/11/06 00:56:14;;;;;;;4.32;2.15;;;7.90;99.90;;;;;;4993492;28;20054;-70
2022/11/06 00:58:41;;;;;;;;;;;7.80;99.90;;;;;;5002095;28;20057;-69
2022/11/06 01:01:14;;;;;;;6.60;2.90;;;7.60;99.90;;;;;;5008782;28;20002;-67
2022/11/06 01:03:43;;;;;;;7.75;3.78;;;7.60;99.90;;;;;;5008518;28;20041;-69
2022/11/06 01:06:21;;;;;;;3.63;1.83;;;7.50;99.90;;;;;;5008751;28;20050;-70
2022/11/06 01:08:48;;;;;;;4.03;2.50;;;7.60;99.90;;;;;;5009873;28;20107;-68
2022/11/06 01:11:29;;;;;;;5.68;2.15;;;7.50;99.90;;;;;;5008956;28;20205;-67
2022/11/06 01:14:18;;;;;;;3.60;1.52;;;7.50;99.90;;;;;;4992550;28;20057;-68
2022/11/06 01:16:45;;;;;;;4.63;1.98;;;7.60;99.90;;;;;;4991126;28;20136;-68
2022/11/06 01:19:13;;;;;;;4.63;2.22;;;7.60;99.90;;;;;;4991952;28;20462;-68
2022/11/06 01:21:42;;;;;;;4.47;3.55;;;7.60;99.90;;;;;;4991601;28;20514;-70
2022/11/06 01:24:18;;;;;;;5.28;2.05;;;7.50;99.90;;;;;;5008753;28;20041;-67
2022/11/06 01:26:45;;;;;;;6.63;4.40;;;7.50;99.90;;;;;;5009601;28;20076;-70
2022/11/06 01:29:33;;;;;;;3.47;2.55;;;7.40;99.90;;;;;;5006622;28;20049;-69
2022/11/06 01:31:59;;;;;;;7.65;1.85;;;7.30;99.90;;;;;;5008620;28;20062;-67
2022/11/06 01:34:27;;;;;;;3.70;1.90;;;7.30;99.90;;;;;;5009508;28;20060;-70
2022/11/06 01:36:53;;;;;;;12.55;3.38;;;7.30;99.90;;;;;;5008612;28;20050;-68
2022/11/06 01:39:20;;;;;;;3.67;2.10;;;7.20;99.90;;;;;;5009098;28;20210;-67
2022/11/06 01:41:51;;;;;;;7.65;2.65;;;7.30;99.90;;;;;;5007269;28;20442;-68
2022/11/06 01:44:40;;;;;;;7.68;2.38;;;7.30;99.90;;;;;;5008242;28;20053;-68
2022/11/06 01:47:20;;;;;;;3.17;1.95;;;7.30;99.90;;;;;;5008456;28;20506;-68
2022/11/06 01:49:49;;;;;;;3.70;2.20;;;7.30;99.90;;;;;;5007250;28;20066;-69
2022/11/06 01:52:17;;;;;;;6.13;2.55;;;7.30;99.90;;;;;;5008420;28;20046;-72
2022/11/06 01:54:47;;;;;;;4.38;2.55;;;7.30;99.90;;;;;;5007988;28;20049;-73
2022/11/06 01:57:14;;;;;;;4.72;1.98;;;7.30;99.90;;;;;;5004088;28;20156;-70
2022/11/06 01:59:44;;;;;;;7.63;3.10;;;7.30;99.90;;;;;;5001145;28;20053;-71
2022/11/06 02:02:14;;;;;;;7.47;2.60;;;7.30;99.90;;;;;;5006273;28;20468;-68
2022/11/06 02:04:44;;;;;;;4.82;2.50;;;7.40;99.90;;;;;;5008874;28;20044;-67
2022/11/06 02:07:12;;;;;;;5.35;2.88;;;7.40;99.90;;;;;;5008717;28;20060;-69
2022/11/06 02:09:40;;;;;;;4.13;2.45;;;7.40;99.90;;;;;;5007027;28;20130;-70
2022/11/06 02:12:16;;;;;;;7.72;3.35;;;7.40;99.90;;;;;;5010898;28;20068;-70
2022/11/06 02:14:59;;;;;;;7.72;2.92;;;7.40;99.90;;;;;;5007542;28;20118;-68
2022/11/06 02:17:54;;;;;;;5.38;2.67;;;7.40;99.90;;;;;;5006556;28;20139;-68
2022/11/06 02:20:23;;;;;;;17.10;5.40;;;7.40;99.90;;;;;;5008054;28;20136;-68
2022/11/06 02:22:59;;;;;;;9.15;2.97;;;7.30;99.90;;;;;;5007769;28;20303;-67
2022/11/06 02:25:51;;;;;;;5.60;3.58;;;7.30;99.90;;;;;;5005124;28;20120;-66
2022/11/06 02:28:27;;;;;;;5.05;3.00;;;7.20;99.90;;;;;;5006982;28;20602;-66
2022/11/06 02:30:57;;;;;;;6.75;3.13;;;7.20;99.90;;;;;;5007112;28;20057;-69
2022/11/06 02:33:39;;;;;;;2.97;2.25;;;7.20;99.90;;;;;;5008872;28;20045;-70
2022/11/06 02:36:10;;;;;;;7.03;3.83;;;7.10;99.90;;;;;;5001606;28;20492;-67
2022/11/06 02:38:53;;;;;;;9.10;3.47;;;7.10;99.90;;;;;;4989766;28;20042;-67
2022/11/06 02:41:27;;;;;;;4.00;3.50;;;7.10;99.90;;;;;;4994188;28;20058;-67
2022/11/06 02:43:55;;;;;;;9.65;2.92;;;7.10;99.90;;;;;;4992657;28;20312;-67
2022/11/06 02:46:36;;;;;;;5.55;2.78;;;7.10;99.90;;;;;;5007930;28;20811;-68
2022/11/06 02:49:29;;;;;;;5.18;2.30;;;7.10;99.90;;;;;;5005997;28;20053;-67
2022/11/06 02:52:03;;;;;;;8.52;3.47;;;7.00;99.90;;;;;;4978684;28;22395;-67
2022/11/06 02:54:35;;;;;;;6.90;2.75;;;7.00;99.90;;;;;;4990338;28;20058;-67
2022/11/06 02:57:06;;;;;;;5.47;3.50;;;7.00;99.90;;;;;;4983987;28;20170;-70
2022/11/06 02:59:49;;;;;;;8.32;2.70;;;7.10;99.90;;;;;;4987498;28;20049;-66
2022/11/06 03:02:22;;;;;;;4.70;2.95;;;7.20;99.90;;;;;;4992923;28;20041;-69
2022/11/06 03:04:59;;;;;;;6.40;3.67;;;7.30;99.90;;;;;;5001678;28;20136;-65
2022/11/06 03:07:30;;;;;;;5.47;2.88;;;7.30;99.90;;;;;;5002281;28;20179;-67
2022/11/06 03:09:57;;;;;;;9.07;3.90;;;7.40;99.90;;;;;;5004993;28;20112;-67
2022/11/06 03:12:36;;;;;;;8.38;3.28;;;7.40;99.90;;;;;;5000755;28;20887;-70
2022/11/06 03:15:12;;;;;;;9.57;3.92;;;7.50;99.90;;;;;;5005420;28;20050;-67
2022/11/06 03:18:11;;;;;;;5.85;4.03;;;7.50;99.90;;;;;;4999305;28;20064;-67
2022/11/06 03:20:52;;;;;;;11.88;4.10;;;7.60;99.90;;;;;;5006085;28;20049;-68
2022/11/06 03:23:27;;;;;;;5.22;3.53;;;7.70;99.90;;;;;;5005108;28;20052;-68
2022/11/06 03:26:18;;;;;;;7.50;4.45;;;7.80;99.90;;;;;;5005160;28;20049;-68
2022/11/06 03:29:15;;;;;;;5.60;3.67;;;7.80;99.90;;;;;;5004439;28;20057;-69
2022/11/06 03:31:52;;;;;;;10.15;3.90;;;7.90;99.90;;;;;;5005000;28;20494;-64
2022/11/06 03:34:31;;;;;;;6.28;3.88;;;7.90;99.90;;;;;;5003188;28;20430;-69
2022/11/06 03:37:06;;;;;;;5.95;3.92;;;7.90;99.90;;;;;;5003139;28;20045;-67
2022/11/06 03:39:38;;;;;;;7.28;4.20;;;8.00;99.90;;;;;;5002755;28;20053;-69
2022/11/06 03:42:09;;;;;;;6.28;4.60;;;7.90;99.90;;;;;;5006391;28;21475;-65
2022/11/06 03:44:42;;;;;;;7.28;4.80;;;7.90;99.90;;;;;;5006021;28;20061;-67
2022/11/06 03:47:23;;;;;;;9.38;4.22;;;7.80;99.90;;;;;;5005492;28;20058;-65
2022/11/06 03:49:59;;;;;;;7.53;4.00;;;7.80;99.90;;;;;;5005237;28;20175;-68
2022/11/06 03:52:37;;;;;;;7.63;3.55;;;7.70;99.90;;;;;;5005873;28;20049;-66
2022/11/06 03:55:21;;;;;;;4.80;3.20;;;7.70;99.90;;;;;;5006477;28;20144;-66
2022/11/06 03:57:55;;;;;;;7.82;3.53;;;7.60;99.90;;;;;;5000269;28;20046;-66
2022/11/06 04:00:23;;;;;;;5.03;3.13;;;7.60;99.90;;;;;;5002974;28;20166;-66
2022/11/06 04:03:03;;;;;;;6.60;4.05;;;7.60;99.90;;;;;;5002409;28;20045;-69
2022/11/06 04:05:42;;;;;;;7.55;4.05;;;7.50;99.90;;;;;;5005679;28;20084;-66
2022/11/06 04:13:59;;;;;;;8.82;4.47;;;7.40;99.90;;;;;;4996775;28;20106;-65
2022/11/06 04:16:35;;;;;;;9.57;3.42;;;7.40;99.90;;;;;;5000243;28;20748;-67
2022/11/06 04:19:04;;;;;;;6.28;4.20;;;7.40;99.90;;;;;;5015144;28;20194;-66
2022/11/06 04:21:47;;;;;;;8.95;3.72;;;7.40;99.90;;;;;;5019884;28;20611;-65
2022/11/06 04:27:32;;;;;;;8.50;3.60;;;7.30;99.90;;;;;;5015751;28;20140;-67
2022/11/06 04:30:10;;;;;;;6.80;3.63;;;7.30;99.90;;;;;;5017149;28;20076;-64
2022/11/06 04:33:05;;;;;;;6.30;3.28;;;7.30;99.90;;;;;;5037528;28;20057;-64
2022/11/06 04:35:38;;;;;;;7.45;3.28;;;7.30;99.90;;;;;;4998554;28;20145;-64
2022/11/06 04:38:16;;;;;;;8.95;4.68;;;7.30;99.90;;;;;;5005572;28;20514;-66
2022/11/06 04:41:15;;;;;;;5.45;3.75;;;7.30;99.90;;;;;;5007784;28;20045;-66
2022/11/06 04:43:45;;;;;;;7.70;3.88;;;7.40;99.90;;;;;;4995148;28;20372;-69
2022/11/06 04:46:35;;;;;;;9.55;4.38;;;7.40;99.90;;;;;;5000894;28;20038;-66
2022/11/06 04:49:04;;;;;;;;;;;7.40;99.90;;;;;;5003872;28;20085;-68
2022/11/06 04:51:34;;;;;;;10.07;4.95;;;7.40;99.90;;;;;;5001539;28;19961;-67
2022/11/06 04:54:01;;;;;;;5.45;3.85;;;7.50;99.90;;;;;;5005981;28;20037;-68
2022/11/06 04:56:30;;;;;;;14.40;4.68;;;7.50;99.90;;;;;;5005281;28;20056;-70
2022/11/06 04:59:02;;;;;;;8.07;4.55;;;7.50;99.90;;;;;;5002896;28;20046;-70
2022/11/06 05:01:29;;;;;;;8.05;4.82;;;7.50;99.90;;;;;;5001161;28;20046;-66
2022/11/06 05:03:56;;;;;;;11.32;5.10;;;7.50;99.90;;;;;;5006670;28;20050;-65
2022/11/06 05:06:23;;;;;;;10.57;4.65;;;7.50;99.90;;;;;;5006282;28;20594;-64
2022/11/06 05:08:57;;;;;;;8.27;4.35;;;7.60;99.90;;;;;;5005639;28;20049;-65
2022/11/06 05:11:24;;;;;;;8.43;4.78;;;7.60;99.90;;;;;;5021114;28;20137;-67
2022/11/06 05:13:51;;;;;;;5.80;4.15;;;7.60;99.90;;;;;;5026231;28;20053;-65
2022/11/06 05:16:17;;;;;;;6.72;5.28;;;7.70;99.90;;;;;;5026747;28;20395;-70
2022/11/06 05:18:44;;;;;;;6.88;5.22;;;7.70;99.90;;;;;;5013817;28;20510;-67
2022/11/06 05:23:59;;;;;;;18.95;5.53;;;7.70;99.90;;;;;;5000860;28;20431;-65
2022/11/06 05:26:26;;;;;;;10.38;4.75;;;7.80;99.90;;;;;;5004381;28;20050;-72
2022/11/06 05:28:53;;;;;;;9.48;5.13;;;7.80;99.90;;;;;;5004806;28;20476;-67
2022/11/06 05:31:20;;;;;;;7.22;4.55;;;7.80;99.90;;;;;;5018798;28;20045;-65
2022/11/06 05:33:47;;;;;;;9.80;4.47;;;7.90;99.90;;;;;;5022894;28;20103;-74
2022/11/06 05:36:14;;;;;;;8.07;5.05;;;7.90;99.90;;;;;;5022709;28;20071;-68
2022/11/06 05:38:41;;;;;;;10.85;5.72;;;7.90;99.90;;;;;;5021426;28;20123;-65
2022/11/06 05:41:07;;;;;;;5.05;4.53;;;7.90;99.90;;;;;;5027501;28;20143;-66
2022/11/06 05:43:34;;;;;;;12.05;5.55;;;8.00;99.90;;;;;;5022888;28;20048;-71
2022/11/06 05:46:02;;;;;;;10.25;5.63;;;8.00;99.90;;;;;;5025591;28;20042;-66
2022/11/06 05:48:29;;;;;;;8.90;4.95;;;8.00;99.90;;;;;;5027576;28;20046;-66
2022/11/06 05:51:03;;;;;;;9.32;5.95;;;8.00;99.90;;;;;;5026513;28;20095;-72
2022/11/06 05:53:32;;;;;;;6.70;5.05;;;8.00;99.90;;;;;;5021591;28;20042;-65
2022/11/06 05:56:00;;;;;;;10.77;5.78;;;8.00;99.90;;;;;;5023493;28;21006;-65
2022/11/06 05:58:27;;;;;;;6.70;5.13;;;8.10;99.90;;;;;;5025192;28;20186;-72
2022/11/06 06:00:55;;;;;;;8.23;5.90;;;8.10;99.90;;;;;;5025904;28;20128;-65
2022/11/06 06:03:22;;;;;;;9.75;5.72;;;8.10;99.90;;;;;;5024287;28;20075;-66
2022/11/06 06:05:49;;;;;;;7.03;6.32;;;8.10;99.90;;;;;;5023578;28;20509;-69
2022/11/06 06:08:17;;;;;;;10.15;6.40;;;8.10;99.90;;;;;;5024258;28;20450;-66
2022/11/06 06:10:45;;;;;;;14.38;8.52;;;8.10;99.90;;;;;;5025786;28;20475;-76
2022/11/06 06:13:13;;;;;;;10.43;9.32;;;8.10;99.90;;;;;;5022125;28;20145;-68
2022/11/06 06:15:41;;;;;;;25.55;18.08;;;8.20;99.90;;;;;;5026178;28;20057;-65
2022/11/06 06:18:09;;;;;;;13.48;10.05;;;8.20;99.90;;;;;;5025297;28;20038;-66
2022/11/06 06:20:36;;;;;;;11.10;9.15;;;8.20;99.90;;;;;;5024610;28;20161;-70
2022/11/06 06:23:03;;;;;;;13.02;9.95;;;8.20;99.90;;;;;;5025648;28;20125;-66
2022/11/06 06:25:35;;;;;;;16.17;8.90;;;8.20;99.90;;;;;;5020923;28;20041;-65
2022/11/06 06:28:01;;;;;;;11.23;8.23;;;8.30;99.90;;;;;;5026850;28;20053;-65
2022/11/06 06:30:28;;;;;;;12.98;11.68;;;8.30;99.90;;;;;;5022263;28;20045;-66
2022/11/06 06:32:55;;;;;;;35.60;27.58;;;8.30;99.90;;;;;;5022682;28;20048;-67
2022/11/06 06:35:22;;;;;;;13.40;10.30;;;8.40;99.90;;;;;;5025958;28;20136;-66
2022/11/06 06:37:51;;;;;;;15.05;12.05;;;8.40;99.90;;;;;;5024024;28;21586;-66
2022/11/06 06:40:22;;;;;;;11.25;10.02;;;8.40;99.90;;;;;;5026044;28;20048;-70
2022/11/06 06:42:48;;;;;;;;;;;8.50;99.90;;;;;;5024228;28;20060;-66
2022/11/06 06:45:15;;;;;;;7.95;6.68;;;8.50;99.90;;;;;;5024596;28;19921;-67
2022/11/06 06:47:42;;;;;;;8.55;7.57;;;8.50;99.90;;;;;;5020372;28;20111;-70
2022/11/06 06:50:09;;;;;;;11.27;7.15;;;8.50;99.90;;;;;;5022331;28;20041;-66
2022/11/06 06:52:36;;;;;;;10.55;6.30;;;8.60;99.90;;;;;;5022108;28;20411;-70
2022/11/06 06:55:04;;;;;;;12.07;7.00;;;8.60;99.90;;;;;;5024204;28;20057;-73
2022/11/06 06:57:31;;;;;;;9.15;7.35;;;8.70;99.90;;;;;;5020466;28;20056;-73
2022/11/06 06:59:58;;;;;;;8.52;5.30;;;8.70;99.90;;;;;;5023907;28;20055;-67
2022/11/06 07:02:25;;;;;;;9.07;5.88;;;8.80;99.90;;;;;;5022877;28;20480;-74
2022/11/06 07:04:52;;;;;;;8.50;7.47;;;8.80;99.90;;;;;;5022308;28;20103;-65
2022/11/06 07:07:19;;;;;;;6.32;5.70;;;8.80;99.90;;;;;;5023888;28;20041;-66
2022/11/06 07:09:46;;;;;;;12.23;8.32;;;8.80;99.90;;;;;;5022958;28;20391;-65
2022/11/06 07:12:12;;;;;;;16.55;7.22;;;8.90;99.90;;;;;;5023266;28;20057;-65
2022/11/06 07:14:39;;;;;;;5.93;4.60;;;9.00;99.90;;;;;;5022406;28;20475;-67
2022/11/06 07:17:06;;;;;;;5.55;4.45;;;9.00;99.90;;;;;;5022496;28;20045;-68
2022/11/06 07:19:33;;;;;;;12.70;4.90;;;9.10;99.90;;;;;;5024198;28;20073;-67
2022/11/06 07:22:00;;;;;;;11.07;5.63;;;9.10;99.90;;;;;;5019450;28;20133;-65
2022/11/06 07:24:27;;;;;;;7.55;4.93;;;9.10;99.90;;;;;;5005306;28;20104;-71
2022/11/06 07:26:54;;;;;;;5.85;4.68;;;9.20;99.90;;;;;;5005409;28;20140;-68
2022/11/06 07:29:21;;;;;;;7.90;5.20;;;9.20;99.90;;;;;;5003498;28;20058;-67
2022/11/06 07:31:48;;;;;;;6.38;4.10;;;9.20;99.90;;;;;;5003903;28;20361;-65
2022/11/06 07:34:14;;;;;;;11.23;5.53;;;9.20;99.90;;;;;;5004259;28;20038;-66
2022/11/06 07:36:41;;;;;;;11.05;5.00;;;9.20;99.90;;;;;;5002449;28;20514;-65
2022/11/06 07:39:08;;;;;;;6.00;4.65;;;9.30;99.90;;;;;;5003821;28;20084;-74
2022/11/06 07:41:36;;;;;;;6.75;3.83;;;9.30;99.90;;;;;;4999436;28;20056;-66
2022/11/06 07:44:03;;;;;;;10.98;4.50;;;9.30;99.90;;;;;;5001124;28;20045;-66
2022/11/06 07:46:30;;;;;;;5.50;3.10;;;9.30;99.90;;;;;;5002460;28;20103;-67
2022/11/06 07:48:57;;;;;;;7.68;4.97;;;9.30;99.90;;;;;;5002904;28;20120;-67
2022/11/06 07:51:24;;;;;;;9.98;5.00;;;9.30;99.90;;;;;;5018660;28;20107;-71
2022/11/06 07:53:51;;;;;;;9.10;4.45;;;9.30;99.90;;;;;;4998801;28;20407;-67
2022/11/06 07:56:18;;;;;;;5.25;4.70;;;9.40;99.90;;;;;;5001179;28;20068;-67
2022/11/06 07:58:45;;;;;;;6.93;4.10;;;9.50;99.90;;;;;;5003355;28;20145;-66
2022/11/06 08:01:14;;;;;;;11.98;4.30;;;9.50;99.90;;;;;;5002798;28;20454;-67
2022/11/06 08:03:44;;;;;;;7.53;5.40;;;9.50;99.90;;;;;;5018496;28;20037;-66
2022/11/06 08:06:12;;;;;;;12.05;5.03;;;9.60;99.90;;;;;;5021756;28;20076;-65
2022/11/06 08:08:38;;;;;;;13.77;5.13;;;9.60;99.90;;;;;;5020929;28;20132;-72
2022/11/06 08:11:08;;;;;;;10.23;4.63;;;9.70;99.90;;;;;;5023646;28;20045;-65
2022/11/06 08:13:35;;;;;;;10.43;5.32;;;9.70;99.90;;;;;;5001547;28;20488;-66
2022/11/06 08:16:09;;;;;;;9.15;5.43;;;9.80;99.90;;;;;;5006468;28;20125;-70
2022/11/06 08:18:37;;;;;;;6.68;5.35;;;9.80;99.90;;;;;;5023426;28;20133;-67
2022/11/06 08:21:05;;;;;;;16.60;4.97;;;9.80;99.90;;;;;;5020443;28;20105;-67
2022/11/06 08:23:33;;;;;;;4.93;3.80;;;9.90;99.90;;;;;;5020336;28;20128;-66
2022/11/06 08:26:03;;;;;;;6.63;4.30;;;9.90;99.90;;;;;;5026557;28;20470;-70
2022/11/06 08:28:30;;;;;;;7.55;4.57;;;9.90;99.90;;;;;;5026266;28;20041;-66
2022/11/06 08:30:57;;;;;;;8.18;4.38;;;10.00;99.90;;;;;;5025495;28;20055;-65
2022/11/06 08:33:24;;;;;;;10.43;3.60;;;10.00;99.90;;;;;;5023642;28;20115;-66
2022/11/06 08:35:51;;;;;;;7.82;4.90;;;10.10;99.90;;;;;;5025641;28;20072;-66
2022/11/06 08:38:18;;;;;;;11.68;3.22;;;10.10;99.90;;;;;;5025133;28;20125;-65
2022/11/06 08:40:45;;;;;;;5.75;3.63;;;10.10;99.90;;;;;;5026917;28;20054;-66
2022/11/06 08:43:19;;;;;;;5.68;3.75;;;10.20;99.90;;;;;;5026439;28;20053;-67
2022/11/06 08:45:46;;;;;;;7.68;3.65;;;10.20;99.90;;;;;;5023217;28;20056;-75
2022/11/06 08:48:12;;;;;;;9.38;5.55;;;10.20;99.90;;;;;;5024777;28;20176;-68
2022/11/06 08:50:40;;;;;;;9.27;4.25;;;10.20;99.90;;;;;;5027693;28;20053;-68
2022/11/06 08:53:07;;;;;;;8.02;5.30;;;10.20;99.90;;;;;;5026320;28;20131;-64
2022/11/06 08:55:37;;;;;;;13.40;4.43;;;10.20;99.90;;;;;;5026201;28;20132;-67
2022/11/06 08:58:05;;;;;;;10.83;6.20;;;10.20;99.90;;;;;;5027896;28;20124;-69
2022/11/06 09:00:32;;;;;;;9.25;5.78;;;10.30;99.90;;;;;;5025897;28;20124;-66
2022/11/06 09:03:12;;;;;;;11.90;5.03;;;10.30;99.90;;;;;;5025933;28;20412;-66
2022/11/06 09:05:41;;;;;;;10.35;6.55;;;10.30;99.90;;;;;;5003572;28;20403;-67
2022/11/06 09:08:09;;;;;;;8.65;4.40;;;10.30;99.90;;;;;;5005558;28;20514;-69
2022/11/06 09:10:37;;;;;;;6.88;3.88;;;10.30;99.90;;;;;;5014792;28;20128;-69
2022/11/06 09:13:05;;;;;;;5.95;3.40;;;10.40;99.90;;;;;;5021334;28;20127;-66
2022/11/06 09:15:32;;;;;;;7.95;4.30;;;10.40;99.90;;;;;;5024943;28;20419;-66
2022/11/06 09:17:59;;;;;;;5.15;4.00;;;10.40;99.90;;;;;;5027994;28;20123;-65
2022/11/06 09:20:25;;;;;;;5.43;3.95;;;10.40;99.90;;;;;;5026070;28;20434;-70
2022/11/06 09:22:53;;;;;;;7.60;3.33;;;10.40;99.90;;;;;;5025234;28;20216;-66
2022/11/06 09:25:20;;;;;;;8.80;4.15;;;10.50;99.90;;;;;;5026552;28;20042;-65
2022/11/06 09:27:50;;;;;;;11.00;4.38;;;10.60;99.90;;;;;;5024719;28;20047;-70
2022/11/06 09:30:25;;;;;;;7.97;4.38;;;10.60;99.90;;;;;;5022836;28;20399;-72
2022/11/06 09:33:02;;;;;;;6.80;3.80;;;10.70;99.90;;;;;;5027404;28;20048;-74
2022/11/06 09:35:32;;;;;;;8.02;4.38;;;10.80;99.90;;;;;;5022390;28;20045;-68
2022/11/06 09:38:04;;;;;;;8.30;4.75;;;10.70;99.90;;;;;;5027145;28;20143;-69
2022/11/06 09:40:38;;;;;;;6.00;4.00;;;10.70;99.90;;;;;;5026537;28;20104;-67
2022/11/06 09:43:37;;;;;;;10.43;3.65;;;10.60;99.90;;;;;;5023344;28;20046;-67
2022/11/06 09:46:28;;;;;;;9.75;4.43;;;10.60;99.90;;;;;;5021757;28;20132;-74
2022/11/06 09:49:01;;;;;;;7.35;3.92;;;10.50;99.90;;;;;;5026137;28;20072;-65
2022/11/06 09:51:40;;;;;;;9.98;3.88;;;10.50;99.90;;;;;;5026881;28;20146;-69
2022/11/06 09:54:27;;;;;;;6.15;3.92;;;10.40;99.90;;;;;;5024012;28;20717;-67
2022/11/06 09:57:05;;;;;;;3.95;3.13;;;10.40;99.90;;;;;;5026892;28;20045;-73
2022/11/06 09:59:36;;;;;;;9.30;4.00;;;10.30;99.90;;;;;;5024018;28;20088;-68
2022/11/06 10:02:20;;;;;;;5.40;3.15;;;10.30;99.90;;;;;;5027127;28;20140;-68
2022/11/06 10:05:08;;;;;;;5.65;2.83;;;10.40;99.90;;;;;;5024601;28;20709;-66
2022/11/06 10:07:38;;;;;;;5.95;3.25;;;10.40;99.90;;;;;;5021696;28;20076;-67
2022/11/06 10:10:17;;;;;;;7.45;3.08;;;10.40;99.90;;;;;;5021308;28;20041;-65
2022/11/06 10:12:55;;;;;;;5.85;2.88;;;10.50;99.90;;;;;;5029381;28;20566;-69
2022/11/06 10:15:27;;;;;;;5.70;2.78;;;10.50;99.90;;;;;;5020976;28;20077;-67
2022/11/06 10:18:25;;;;;;;9.75;2.80;;;10.50;99.90;;;;;;5018005;28;20049;-70
2022/11/06 10:20:53;;;;;;;8.48;4.82;;;10.50;99.90;;;;;;5024989;28;20176;-66
2022/11/06 10:23:49;;;;;;;8.18;4.20;;;10.60;99.90;;;;;;5023212;28;20848;-67
2022/11/06 10:26:18;;;;;;;3.20;2.70;;;10.70;99.90;;;;;;5022298;28;20049;-65
2022/11/06 10:29:11;;;;;;;5.38;3.33;;;10.80;99.90;;;;;;5021637;28;20061;-67
2022/11/06 10:32:15;;;;;;;7.20;3.88;;;10.90;99.90;;;;;;5017851;28;20045;-69
2022/11/06 10:34:50;;;;;;;5.07;3.25;;;10.90;99.90;;;;;;5024559;28;20060;-66
2022/11/06 10:37:30;;;;;;;5.95;2.83;;;11.00;99.90;;;;;;5008156;28;20660;-65
2022/11/06 10:39:58;;;;;;;5.43;2.70;;;11.00;99.90;;;;;;5002717;28;20137;-65
2022/11/06 10:42:30;;;;;;;6.95;3.17;;;11.00;99.90;;;;;;5006777;28;20056;-69
2022/11/06 10:45:14;;;;;;;10.18;3.22;;;11.10;99.90;;;;;;5000051;28;20514;-68
2022/11/06 10:47:48;;;;;;;7.53;3.20;;;11.10;99.90;;;;;;5002239;28;20069;-67
2022/11/06 10:50:16;;;;;;;5.57;2.80;;;11.00;99.90;;;;;;5016303;28;20104;-65
2022/11/06 10:52:46;;;;;;;9.73;2.70;;;11.00;99.90;;;;;;5004495;28;20054;-66
2022/11/06 10:55:35;;;;;;;7.65;2.53;;;10.90;99.90;;;;;;5004502;28;20046;-65
2022/11/06 10:58:08;;;;;;;8.00;3.05;;;10.90;99.90;;;;;;5018906;28;20132;-73
2022/11/06 11:00:35;;;;;;;10.30;3.65;;;10.80;99.90;;;;;;5021985;28;20056;-66
2022/11/06 11:03:05;;;;;;;10.18;3.15;;;10.80;99.90;;;;;;5023148;28;20049;-70
2022/11/06 11:05:43;;;;;;;9.80;4.20;;;10.80;99.90;;;;;;5021138;28;20041;-66
2022/11/06 11:08:40;;;;;;;5.80;2.50;;;10.80;99.90;;;;;;5024301;28;20060;-67
2022/11/06 11:11:14;;;;;;;5.50;2.75;;;10.90;99.90;;;;;;5021379;28;20132;-67
2022/11/06 11:13:46;;;;;;;4.57;2.67;;;10.90;99.90;;;;;;5015042;28;20042;-66
2022/11/06 11:16:33;;;;;;;4.40;1.88;;;10.90;99.90;;;;;;5023895;28;20100;-68
2022/11/06 11:19:31;;;;;;;6.85;2.28;;;10.90;99.90;;;;;;5020816;28;20049;-74
2022/11/06 11:22:00;;;;;;;3.88;2.35;;;11.00;99.90;;;;;;4997059;28;20046;-67
2022/11/06 11:24:28;;;;;;;10.02;2.53;;;11.00;99.90;;;;;;5002984;28;20038;-71
2022/11/06 11:27:03;;;;;;;2.90;2.35;;;10.90;99.90;;;;;;5003726;28;20129;-67
2022/11/06 11:29:40;;;;;;;5.03;2.28;;;10.90;99.90;;;;;;5000301;28;20053;-71
2022/11/06 11:32:07;;;;;;;7.05;2.40;;;11.00;99.90;;;;;;5004259;28;20453;-65
2022/11/06 11:34:43;;;;;;;4.43;2.53;;;11.00;99.90;;;;;;5003498;28;20052;-66
2022/11/06 11:37:34;;;;;;;5.78;2.33;;;11.00;99.90;;;;;;4997028;28;20160;-66
2022/11/06 11:40:35;;;;;;;3.92;2.60;;;11.00;99.90;;;;;;5019299;28;20128;-67
2022/11/06 11:43:19;;;;;;;;;;;11.00;99.90;;;;;;5020240;28;20663;-67
2022/11/06 11:46:08;;;;;;;8.20;3.10;;;11.00;99.90;;;;;;5016632;28;19925;-69
2022/11/06 11:48:43;;;;;;;5.00;2.60;;;11.00;99.90;;;;;;5009974;28;20132;-67
2022/11/06 11:51:16;;;;;;;7.68;2.58;;;11.00;99.90;;;;;;5022622;28;20064;-67
2022/11/06 11:53:44;;;;;;;5.38;3.08;;;11.00;99.90;;;;;;5002773;28;20054;-67
2022/11/06 11:56:19;;;;;;;6.15;2.95;;;11.00;99.90;;;;;;5015562;28;20073;-66
2022/11/06 11:59:14;;;;;;;7.10;3.60;;;11.00;99.90;;;;;;5004351;28;20546;-71
2022/11/06 12:01:41;;;;;;;8.15;2.80;;;11.00;99.90;;;;;;5003046;28;20552;-67
2022/11/06 12:04:13;;;;;;;6.85;2.85;;;11.00;99.90;;;;;;5006823;28;20072;-70
2022/11/06 12:06:52;;;;;;;12.18;3.38;;;11.00;99.90;;;;;;5005669;28;20129;-66
2022/11/06 12:09:20;;;;;;;7.10;3.03;;;11.00;99.90;;;;;;5004404;28;20272;-67
2022/11/06 12:11:47;;;;;;;4.22;2.88;;;11.00;99.90;;;;;;5004468;28;20046;-66
2022/11/06 12:14:15;;;;;;;9.93;3.88;;;11.00;99.90;;;;;;5005003;28;20137;-66
2022/11/06 12:16:47;;;;;;;10.00;3.30;;;11.00;99.90;;;;;;5003029;28;20349;-66
2022/11/06 12:19:15;;;;;;;4.13;2.33;;;11.00;99.90;;;;;;5002440;28;20114;-66
2022/11/06 12:21:48;;;;;;;4.53;2.92;;;10.90;99.90;;;;;;5006167;28;20046;-66
2022/11/06 12:24:24;;;;;;;9.77;2.80;;;10.90;99.90;;;;;;5006844;28;20046;-73
2022/11/06 12:27:01;;;;;;;4.55;2.55;;;10.90;99.90;;;;;;5003253;28;20137;-68
2022/11/06 12:29:44;;;;;;;4.40;2.05;;;10.90;99.90;;;;;;5004073;28;20081;-74
2022/11/06 12:32:38;;;;;;;7.70;2.83;;;10.90;99.90;;;;;;5017921;28;20053;-69
2022/11/06 12:35:22;;;;;;;4.80;2.40;;;10.90;99.90;;;;;;5006093;28;20458;-66
2022/11/06 12:38:15;;;;;;;5.25;2.65;;;10.90;99.90;;;;;;5001688;28;20155;-69
2022/11/06 12:41:00;;;;;;;6.30;3.33;;;10.80;99.90;;;;;;5003491;28;20124;-66
2022/11/06 12:43:38;;;;;;;5.30;3.17;;;10.80;99.90;;;;;;5019471;28;20037;-67
2022/11/06 12:46:26;;;;;;;4.68;3.97;;;10.80;99.90;;;;;;5020848;28;20064;-66
2022/11/06 12:49:02;;;;;;;7.85;3.42;;;10.80;99.90;;;;;;5011537;28;20065;-65
2022/11/06 12:51:39;;;;;;;8.20;4.18;;;10.70;99.90;;;;;;5001416;28;20131;-69
2022/11/06 12:54:30;;;;;;;7.88;3.35;;;10.70;99.90;;;;;;5008530;28;20136;-71
2022/11/06 12:57:09;;;;;;;4.75;3.83;;;10.70;99.90;;;;;;5005289;28;20145;-65
2022/11/06 12:59:59;;;;;;;6.88;3.88;;;10.70;99.90;;;;;;5021272;28;20483;-66
2022/11/06 13:02:39;;;;;;;11.32;4.25;;;10.70;99.90;;;;;;5022989;28;20096;-72
2022/11/06 13:05:15;;;;;;;7.97;5.38;;;10.70;99.90;;;;;;5023106;28;20045;-70
2022/11/06 13:08:10;;;;;;;10.65;3.40;;;10.70;99.90;;;;;;5020119;28;20136;-70
2022/11/06 13:10:50;;;;;;;9.02;4.00;;;10.70;99.90;;;;;;5025176;28;20041;-69
2022/11/06 13:13:41;;;;;;;5.85;2.80;;;10.60;99.90;;;;;;5028709;28;20056;-71
2022/11/06 13:16:23;;;;;;;8.75;3.60;;;10.50;99.90;;;;;;5000735;28;20511;-67
2022/11/06 13:18:59;;;;;;;12.77;5.05;;;10.50;99.90;;;;;;5016111;28;20111;-75
2022/11/06 13:21:50;;;;;;;10.35;5.00;;;10.50;99.90;;;;;;5022611;28;20132;-67
2022/11/06 13:24:58;;;;;;;10.45;3.45;;;10.40;99.90;;;;;;5025779;28;20067;-70
2022/11/06 13:27:49;;;;;;;13.85;3.40;;;10.50;99.90;;;;;;5017483;28;20095;-68
2022/11/06 13:30:21;;;;;;;7.03;3.30;;;10.50;99.90;;;;;;5025256;28;20510;-65
2022/11/06 13:33:28;;;;;;;8.57;3.40;;;10.40;99.90;;;;;;5020968;28;20479;-68
2022/11/06 13:35:57;;;;;;;7.22;3.30;;;10.40;99.90;;;;;;4985457;28;20060;-71
2022/11/06 13:38:32;;;;;;;6.38;4.10;;;10.40;99.90;;;;;;5036133;28;20560;-68
2022/11/06 13:41:05;;;;;;;6.93;4.43;;;10.40;99.90;;;;;;5017713;28;20048;-66